Aviation Digital Data Service (ADDS)

Output produced by METARs form (1844 UTC 19 August 2019)
found at http://www.aviationweather.gov/metar/data/
 
METAR text: RJOW 191000Z 31003KT 6000 BR FEW004 SCT030 BKN070 26/25 Q1009
Conditions at: RJOW (IWAMI , JP) observed 1000 UTC 19 August 2019
Temperature: 26.0°C (79°F)
Dewpoint: 25.0°C (77°F) [RH = 94%]
Pressure (altimeter): 29.79 inches Hg (1009.0 mb)
Winds: from the NW (310 degrees) at 3 MPH (3 knots; 1.5 m/s)
Visibility: 4 miles ( 6 km)
Ceiling: 7000 feet AGL
Clouds: few clouds at 400 feet AGL
scattered clouds at 3000 feet AGL
broken clouds at 7000 feet AGL
Weather: BR  (mist)

METAR text: RJOW 190900Z 10004KT 4000 -SHRA BR FEW004 SCT030 BKN080 26/25 Q1008
Conditions at: RJOW (IWAMI , JP) observed 0900 UTC 19 August 2019
Temperature: 26.0°C (79°F)
Dewpoint: 25.0°C (77°F) [RH = 94%]
Pressure (altimeter): 29.76 inches Hg (1008.0 mb)
Winds: from the E (100 degrees) at 5 MPH (4 knots; 2.1 m/s)
Visibility: 2.49 miles (4.01 km)
Ceiling: 8000 feet AGL
Clouds: few clouds at 400 feet AGL
scattered clouds at 3000 feet AGL
broken clouds at 8000 feet AGL
Weather: -SHRA BR  (light rain showers, mist)

METAR text: RJOW 190831Z VRB02KT 4000 -SHRA BR FEW004 SCT040 BKN080 26/25 Q1008 RMK 1ST004 3CU040 5AC080 A2979
Conditions at: RJOW (IWAMI , JP) observed 0831 UTC 19 August 2019
Temperature: 26.0°C (79°F)
Dewpoint: 25.0°C (77°F) [RH = 94%]
Pressure (altimeter): 29.76 inches Hg (1008.0 mb)
Winds: variable direction winds at 2 MPH (2 knots; 1.0 m/s)
Visibility: 2.49 miles (4.01 km)
Ceiling: 8000 feet AGL
Clouds: few clouds at 400 feet AGL
scattered clouds at 4000 feet AGL
broken clouds at 8000 feet AGL
Weather: -SHRA BR  (light rain showers, mist)

METAR text: RJOW 190800Z VRB02KT 5000 -SHRA BR FEW004 SCT030 BKN080 26/25 Q1009
Conditions at: RJOW (IWAMI , JP) observed 0800 UTC 19 August 2019
Temperature: 26.0°C (79°F)
Dewpoint: 25.0°C (77°F) [RH = 94%]
Pressure (altimeter): 29.79 inches Hg (1009.0 mb)
Winds: variable direction winds at 2 MPH (2 knots; 1.0 m/s)
Visibility: 3 miles ( 5 km)
Ceiling: 8000 feet AGL
Clouds: few clouds at 400 feet AGL
scattered clouds at 3000 feet AGL
broken clouds at 8000 feet AGL
Weather: -SHRA BR  (light rain showers, mist)

METAR text: RJOW 190700Z 10004KT 070V150 5000 BR FEW004 SCT025 BKN070 27/25 Q1009
Conditions at: RJOW (IWAMI , JP) observed 0700 UTC 19 August 2019
Temperature: 27.0°C (81°F)
Dewpoint: 25.0°C (77°F) [RH = 89%]
Pressure (altimeter): 29.79 inches Hg (1009.0 mb)
Winds: from the E (100 degrees) at 5 MPH (4 knots; 2.1 m/s)
Visibility: 3 miles ( 5 km)
Ceiling: 7000 feet AGL
Clouds: few clouds at 400 feet AGL
scattered clouds at 2500 feet AGL
broken clouds at 7000 feet AGL
Weather: BR  (mist)

METAR text: RJOW 190600Z 14004KT 4000 BR FEW002 SCT015 BKN035 26/24 Q1009
Conditions at: RJOW (IWAMI , JP) observed 0600 UTC 19 August 2019
Temperature: 26.0°C (79°F)
Dewpoint: 24.0°C (75°F) [RH = 89%]
Pressure (altimeter): 29.79 inches Hg (1009.0 mb)
Winds: from the SE (140 degrees) at 5 MPH (4 knots; 2.1 m/s)
Visibility: 2.49 miles (4.01 km)
Ceiling: 3500 feet AGL
Clouds: few clouds at 200 feet AGL
scattered clouds at 1500 feet AGL
broken clouds at 3500 feet AGL
Weather: BR  (mist)

METAR text: RJOW 190500Z VRB02KT 4000 -SHRA BR FEW002 SCT020 BKN035 26/24 Q1009
Conditions at: RJOW (IWAMI , JP) observed 0500 UTC 19 August 2019
Temperature: 26.0°C (79°F)
Dewpoint: 24.0°C (75°F) [RH = 89%]
Pressure (altimeter): 29.79 inches Hg (1009.0 mb)
Winds: variable direction winds at 2 MPH (2 knots; 1.0 m/s)
Visibility: 2.49 miles (4.01 km)
Ceiling: 3500 feet AGL
Clouds: few clouds at 200 feet AGL
scattered clouds at 2000 feet AGL
broken clouds at 3500 feet AGL
Weather: -SHRA BR  (light rain showers, mist)

METAR text: RJOW 190441Z VRB01KT 4000 -SHRA BR FEW002 SCT020 BKN035 25/23 Q1009 RMK 1ST002 3CU020 5CU035 A2981
Conditions at: RJOW (IWAMI , JP) observed 0441 UTC 19 August 2019
Temperature: 25.0°C (77°F)
Dewpoint: 23.0°C (73°F) [RH = 89%]
Pressure (altimeter): 29.79 inches Hg (1009.0 mb)
Winds: variable direction winds at 1 MPH (1 knots; 0.5 m/s)
Visibility: 2.49 miles (4.01 km)
Ceiling: 3500 feet AGL
Clouds: few clouds at 200 feet AGL
scattered clouds at 2000 feet AGL
broken clouds at 3500 feet AGL
Weather: -SHRA BR  (light rain showers, mist)

METAR text: RJOW 190400Z 15003KT 110V170 6000 -SHRA BR FEW003 BKN020 BKN040 25/23 Q1010
Conditions at: RJOW (IWAMI , JP) observed 0400 UTC 19 August 2019
Temperature: 25.0°C (77°F)
Dewpoint: 23.0°C (73°F) [RH = 89%]
Pressure (altimeter): 29.82 inches Hg (1010.0 mb)
Winds: from the SSE (150 degrees) at 3 MPH (3 knots; 1.5 m/s)
Visibility: 4 miles ( 6 km)
Ceiling: 2000 feet AGL
Clouds: few clouds at 300 feet AGL
broken clouds at 2000 feet AGL
broken clouds at 4000 feet AGL
Weather: -SHRA BR  (light rain showers, mist)

METAR text: RJOW 190341Z 18004KT 150V210 5000 -SHRA BR FEW003 SCT010 BKN030 25/24 Q1009 RMK 1ST003 4CU010 7CU030 A2982
Conditions at: RJOW (IWAMI , JP) observed 0341 UTC 19 August 2019
Temperature: 25.0°C (77°F)
Dewpoint: 24.0°C (75°F) [RH = 94%]
Pressure (altimeter): 29.79 inches Hg (1009.0 mb)
Winds: from the S (180 degrees) at 5 MPH (4 knots; 2.1 m/s)
Visibility: 3 miles ( 5 km)
Ceiling: 3000 feet AGL
Clouds: few clouds at 300 feet AGL
scattered clouds at 1000 feet AGL
broken clouds at 3000 feet AGL
Weather: -SHRA BR  (light rain showers, mist)

METAR text: RJOW 190313Z 00000KT 3500 R11/1500VP2000D SHRA BR FEW025 BKN030 26/25 Q1009 RMK 1CU025 7CU030 A2982
Conditions at: RJOW (IWAMI , JP) observed 0313 UTC 19 August 2019
Temperature: 26.0°C (79°F)
Dewpoint: 25.0°C (77°F) [RH = 94%]
Pressure (altimeter): 29.79 inches Hg (1009.0 mb)
Winds: calm
Visibility: 2.17 miles (3.49 km)
Ceiling: 3000 feet AGL
Clouds: few clouds at 2500 feet AGL
broken clouds at 3000 feet AGL
Weather: SHRA BR  (rain showers, mist)

METAR text: RJOW 190300Z VRB02KT 4000 R11/1500VP2000D -SHRA BR FEW025 SCT030 BKN080 26/25 Q1009
Conditions at: RJOW (IWAMI , JP) observed 0300 UTC 19 August 2019
Temperature: 26.0°C (79°F)
Dewpoint: 25.0°C (77°F) [RH = 94%]
Pressure (altimeter): 29.79 inches Hg (1009.0 mb)
Winds: variable direction winds at 2 MPH (2 knots; 1.0 m/s)
Visibility: 2.49 miles (4.01 km)
Ceiling: 8000 feet AGL
Clouds: few clouds at 2500 feet AGL
scattered clouds at 3000 feet AGL
broken clouds at 8000 feet AGL
Weather: -SHRA BR  (light rain showers, mist)

METAR text: RJOW 190200Z 35003KT 300V030 8000 NSC 27/24 Q1009
Conditions at: RJOW (IWAMI , JP) observed 0200 UTC 19 August 2019
Temperature: 27.0°C (81°F)
Dewpoint: 24.0°C (75°F) [RH = 84%]
Pressure (altimeter): 29.79 inches Hg (1009.0 mb)
Winds: from the N (350 degrees) at 3 MPH (3 knots; 1.5 m/s)
Visibility: 5 miles ( 8 km)
Ceiling: at least 12,000 feet AGL
Clouds: sky clear below 12,000 feet AGL
Weather: no significant weather observed at this time

METAR text: RJOW 190100Z 33003KT 300V360 9000 FEW025 BKN100 28/25 Q1009
Conditions at: RJOW (IWAMI , JP) observed 0100 UTC 19 August 2019
Temperature: 28.0°C (82°F)
Dewpoint: 25.0°C (77°F) [RH = 84%]
Pressure (altimeter): 29.79 inches Hg (1009.0 mb)
Winds: from the NNW (330 degrees) at 3 MPH (3 knots; 1.5 m/s)
Visibility: 6 miles ( 9 km)
Ceiling: 10000 feet AGL
Clouds: few clouds at 2500 feet AGL
broken clouds at 10000 feet AGL
Weather: no significant weather observed at this time

METAR text: RJOW 190000Z VRB02KT 9000 NSC 28/24 Q1009
Conditions at: RJOW (IWAMI , JP) observed 0000 UTC 19 August 2019
Temperature: 28.0°C (82°F)
Dewpoint: 24.0°C (75°F) [RH = 79%]
Pressure (altimeter): 29.79 inches Hg (1009.0 mb)
Winds: variable direction winds at 2 MPH (2 knots; 1.0 m/s)
Visibility: 6 miles ( 9 km)
Ceiling: at least 12,000 feet AGL
Clouds: sky clear below 12,000 feet AGL
Weather: no significant weather observed at this time

METAR text: RJOW 182300Z 16003KT 8000 NSC 26/24 Q1009
Conditions at: RJOW (IWAMI , JP) observed 2300 UTC 18 August 2019
Temperature: 26.0°C (79°F)
Dewpoint: 24.0°C (75°F) [RH = 89%]
Pressure (altimeter): 29.79 inches Hg (1009.0 mb)
Winds: from the SSE (160 degrees) at 3 MPH (3 knots; 1.5 m/s)
Visibility: 5 miles ( 8 km)
Ceiling: at least 12,000 feet AGL
Clouds: sky clear below 12,000 feet AGL
Weather: no significant weather observed at this time

METAR text: RJOW 181000Z VRB02KT 5000 BR NSC 26/24 Q1006
Conditions at: RJOW (IWAMI , JP) observed 1000 UTC 18 August 2019
Temperature: 26.0°C (79°F)
Dewpoint: 24.0°C (75°F) [RH = 89%]
Pressure (altimeter): 29.70 inches Hg (1006.0 mb)
Winds: variable direction winds at 2 MPH (2 knots; 1.0 m/s)
Visibility: 3 miles ( 5 km)
Ceiling: at least 12,000 feet AGL
Clouds: sky clear below 12,000 feet AGL
Weather: BR  (mist)

METAR text: RJOW 180900Z 31003KT 7000 NSC 26/24 Q1007
Conditions at: RJOW (IWAMI , JP) observed 0900 UTC 18 August 2019
Temperature: 26.0°C (79°F)
Dewpoint: 24.0°C (75°F) [RH = 89%]
Pressure (altimeter): 29.73 inches Hg (1007.0 mb)
Winds: from the NW (310 degrees) at 3 MPH (3 knots; 1.5 m/s)
Visibility: 4 miles ( 7 km)
Ceiling: at least 12,000 feet AGL
Clouds: sky clear below 12,000 feet AGL
Weather: no significant weather observed at this time

METAR text: RJOW 180800Z VRB02KT 7000 NSC 27/24 Q1006
Conditions at: RJOW (IWAMI , JP) observed 0800 UTC 18 August 2019
Temperature: 27.0°C (81°F)
Dewpoint: 24.0°C (75°F) [RH = 84%]
Pressure (altimeter): 29.70 inches Hg (1006.0 mb)
Winds: variable direction winds at 2 MPH (2 knots; 1.0 m/s)
Visibility: 4 miles ( 7 km)
Ceiling: at least 12,000 feet AGL
Clouds: sky clear below 12,000 feet AGL
Weather: no significant weather observed at this time

METAR text: RJOW 180700Z 03003KT 340V100 CAVOK 27/24 Q1006
Conditions at: RJOW (IWAMI , JP) observed 0700 UTC 18 August 2019
Temperature: 27.0°C (81°F)
Dewpoint: 24.0°C (75°F) [RH = 84%]
Pressure (altimeter): 29.70 inches Hg (1006.0 mb)
Winds: from the NNE (30 degrees) at 3 MPH (3 knots; 1.5 m/s)
Visibility: 6 or more miles (10+ km)
Ceiling: ceiling and visibility are OK
Clouds: unknown
Weather: no significant weather observed at this time